sensor_id;sensor_type;location;lat;lon;timestamp;pressure;altitude;pressure_sealevel;temperature
19040;BMP180;9652;49.014;12.052;2023-07-24T00:01:29;97337.00;;;23.50
19040;BMP180;9652;49.014;12.052;2023-07-24T00:03:56;97324.00;;;23.60
19040;BMP180;9652;49.014;12.052;2023-07-24T00:06:24;97305.00;;;23.50
19040;BMP180;9652;49.014;12.052;2023-07-24T00:08:51;97308.00;;;23.50
19040;BMP180;9652;49.014;12.052;2023-07-24T00:11:20;97298.00;;;23.50
19040;BMP180;9652;49.014;12.052;2023-07-24T00:13:47;97273.00;;;23.50
19040;BMP180;9652;49.014;12.052;2023-07-24T00:16:14;97275.00;;;23.40
19040;BMP180;9652;49.014;12.052;2023-07-24T00:18:41;97274.00;;;23.40
19040;BMP180;9652;49.014;12.052;2023-07-24T00:21:08;97262.00;;;23.40
19040;BMP180;9652;49.014;12.052;2023-07-24T00:23:36;97238.00;;;23.40
19040;BMP180;9652;49.014;12.052;2023-07-24T00:26:03;97242.00;;;23.30
19040;BMP180;9652;49.014;12.052;2023-07-24T00:28:32;97239.00;;;23.30
19040;BMP180;9652;49.014;12.052;2023-07-24T00:30:59;97253.00;;;23.20
19040;BMP180;9652;49.014;12.052;2023-07-24T00:33:27;97247.00;;;23.20
19040;BMP180;9652;49.014;12.052;2023-07-24T00:35:55;97241.00;;;23.20
19040;BMP180;9652;49.014;12.052;2023-07-24T00:38:23;97266.00;;;23.10
19040;BMP180;9652;49.014;12.052;2023-07-24T00:40:50;97253.00;;;23.10
19040;BMP180;9652;49.014;12.052;2023-07-24T00:43:17;97258.00;;;23.00
19040;BMP180;9652;49.014;12.052;2023-07-24T00:45:47;97258.00;;;22.90
19040;BMP180;9652;49.014;12.052;2023-07-24T00:48:15;97273.00;;;22.90
19040;BMP180;9652;49.014;12.052;2023-07-24T00:50:43;97282.00;;;22.80
19040;BMP180;9652;49.014;12.052;2023-07-24T00:53:12;97284.00;;;22.80
19040;BMP180;9652;49.014;12.052;2023-07-24T00:55:41;97293.00;;;22.80
19040;BMP180;9652;49.014;12.052;2023-07-24T00:58:11;97301.00;;;22.90
19040;BMP180;9652;49.014;12.052;2023-07-24T01:00:39;97279.00;;;22.90
19040;BMP180;9652;49.014;12.052;2023-07-24T01:03:09;97285.00;;;22.90
19040;BMP180;9652;49.014;12.052;2023-07-24T01:05:38;97269.00;;;22.90
19040;BMP180;9652;49.014;12.052;2023-07-24T01:08:07;97263.00;;;22.90
19040;BMP180;9652;49.014;12.052;2023-07-24T01:10:34;97243.00;;;23.00
19040;BMP180;9652;49.014;12.052;2023-07-24T01:13:09;97239.00;;;22.90
19040;BMP180;9652;49.014;12.052;2023-07-24T01:15:48;97262.00;;;23.00
19040;BMP180;9652;49.014;12.052;2023-07-24T01:18:18;97273.00;;;23.00
19040;BMP180;9652;49.014;12.052;2023-07-24T01:20:53;97312.00;;;23.00
19040;BMP180;9652;49.014;12.052;2023-07-24T01:23:37;97333.00;;;23.00
19040;BMP180;9652;49.014;12.052;2023-07-24T01:26:07;97335.00;;;22.90
19040;BMP180;9652;49.014;12.052;2023-07-24T01:28:35;97330.00;;;22.90
19040;BMP180;9652;49.014;12.052;2023-07-24T01:31:02;97329.00;;;22.90
19040;BMP180;9652;49.014;12.052;2023-07-24T01:33:29;97321.00;;;23.00
19040;BMP180;9652;49.014;12.052;2023-07-24T01:35:59;97325.00;;;23.00
19040;BMP180;9652;49.014;12.052;2023-07-24T01:38:28;97312.00;;;23.10
19040;BMP180;9652;49.014;12.052;2023-07-24T01:40:57;97306.00;;;23.10
19040;BMP180;9652;49.014;12.052;2023-07-24T01:43:27;97298.00;;;23.20
19040;BMP180;9652;49.014;12.052;2023-07-24T01:45:55;97275.00;;;23.20
19040;BMP180;9652;49.014;12.052;2023-07-24T01:48:22;97282.00;;;23.20
19040;BMP180;9652;49.014;12.052;2023-07-24T01:50:49;97279.00;;;23.30
19040;BMP180;9652;49.014;12.052;2023-07-24T01:53:16;97284.00;;;23.30
19040;BMP180;9652;49.014;12.052;2023-07-24T01:55:43;97281.00;;;23.30
19040;BMP180;9652;49.014;12.052;2023-07-24T01:58:09;97280.00;;;23.20
19040;BMP180;9652;49.014;12.052;2023-07-24T02:00:38;97275.00;;;23.20
19040;BMP180;9652;49.014;12.052;2023-07-24T02:03:05;97281.00;;;23.20
19040;BMP180;9652;49.014;12.052;2023-07-24T02:05:32;97268.00;;;23.20
19040;BMP180;9652;49.014;12.052;2023-07-24T02:08:00;97300.00;;;23.20
19040;BMP180;9652;49.014;12.052;2023-07-24T02:10:27;97305.00;;;23.10
19040;BMP180;9652;49.014;12.052;2023-07-24T02:12:54;97314.00;;;23.10
19040;BMP180;9652;49.014;12.052;2023-07-24T02:15:21;97310.00;;;23.10
19040;BMP180;9652;49.014;12.052;2023-07-24T02:17:49;97296.00;;;23.10
19040;BMP180;9652;49.014;12.052;2023-07-24T02:20:17;97270.00;;;23.10
19040;BMP180;9652;49.014;12.052;2023-07-24T02:22:44;97237.00;;;23.10
19040;BMP180;9652;49.014;12.052;2023-07-24T02:25:11;97249.00;;;23.10
19040;BMP180;9652;49.014;12.052;2023-07-24T02:27:38;97247.00;;;23.00
19040;BMP180;9652;49.014;12.052;2023-07-24T02:30:06;97253.00;;;23.00
19040;BMP180;9652;49.014;12.052;2023-07-24T02:32:34;97257.00;;;23.00
19040;BMP180;9652;49.014;12.052;2023-07-24T02:35:04;97211.00;;;23.00
19040;BMP180;9652;49.014;12.052;2023-07-24T02:37:31;97256.00;;;23.00
19040;BMP180;9652;49.014;12.052;2023-07-24T02:39:58;97247.00;;;22.90
19040;BMP180;9652;49.014;12.052;2023-07-24T02:42:27;97253.00;;;22.90
19040;BMP180;9652;49.014;12.052;2023-07-24T02:44:54;97249.00;;;22.90
19040;BMP180;9652;49.014;12.052;2023-07-24T02:47:21;97241.00;;;22.80
19040;BMP180;9652;49.014;12.052;2023-07-24T02:49:48;97252.00;;;22.80
19040;BMP180;9652;49.014;12.052;2023-07-24T02:52:16;97245.00;;;22.80
19040;BMP180;9652;49.014;12.052;2023-07-24T02:54:44;97234.00;;;22.70
19040;BMP180;9652;49.014;12.052;2023-07-24T02:57:11;97230.00;;;22.70
19040;BMP180;9652;49.014;12.052;2023-07-24T02:59:38;97222.00;;;22.70
19040;BMP180;9652;49.014;12.052;2023-07-24T03:02:05;97221.00;;;22.60
19040;BMP180;9652;49.014;12.052;2023-07-24T03:04:32;97192.00;;;22.60
19040;BMP180;9652;49.014;12.052;2023-07-24T03:06:59;97208.00;;;22.60
19040;BMP180;9652;49.014;12.052;2023-07-24T03:09:27;97205.00;;;22.50
19040;BMP180;9652;49.014;12.052;2023-07-24T03:11:54;97203.00;;;22.50
19040;BMP180;9652;49.014;12.052;2023-07-24T03:14:23;97180.00;;;22.50
19040;BMP180;9652;49.014;12.052;2023-07-24T03:16:51;97175.00;;;22.50
19040;BMP180;9652;49.014;12.052;2023-07-24T03:19:18;97189.00;;;22.50
19040;BMP180;9652;49.014;12.052;2023-07-24T03:21:46;97183.00;;;22.50
19040;BMP180;9652;49.014;12.052;2023-07-24T03:24:13;97184.00;;;22.50
19040;BMP180;9652;49.014;12.052;2023-07-24T03:26:41;97186.00;;;22.50
19040;BMP180;9652;49.014;12.052;2023-07-24T03:29:08;97185.00;;;22.40
19040;BMP180;9652;49.014;12.052;2023-07-24T03:31:35;97163.00;;;22.40
19040;BMP180;9652;49.014;12.052;2023-07-24T03:34:02;97188.00;;;22.40
19040;BMP180;9652;49.014;12.052;2023-07-24T03:36:29;97196.00;;;22.40
19040;BMP180;9652;49.014;12.052;2023-07-24T03:38:56;97163.00;;;22.40
19040;BMP180;9652;49.014;12.052;2023-07-24T03:41:23;97184.00;;;22.30
19040;BMP180;9652;49.014;12.052;2023-07-24T03:43:55;97196.00;;;22.30
19040;BMP180;9652;49.014;12.052;2023-07-24T03:46:23;97209.00;;;22.30
19040;BMP180;9652;49.014;12.052;2023-07-24T03:48:50;97201.00;;;22.40
19040;BMP180;9652;49.014;12.052;2023-07-24T03:51:17;97233.00;;;22.40
19040;BMP180;9652;49.014;12.052;2023-07-24T03:53:44;97236.00;;;22.40
19040;BMP180;9652;49.014;12.052;2023-07-24T03:56:11;97247.00;;;22.40
19040;BMP180;9652;49.014;12.052;2023-07-24T03:58:38;97287.00;;;22.50
19040;BMP180;9652;49.014;12.052;2023-07-24T04:01:08;97304.00;;;22.50
19040;BMP180;9652;49.014;12.052;2023-07-24T04:03:35;97311.00;;;22.50
19040;BMP180;9652;49.014;12.052;2023-07-24T04:06:02;97313.00;;;22.50
19040;BMP180;9652;49.014;12.052;2023-07-24T04:08:30;97300.00;;;22.50
19040;BMP180;9652;49.014;12.052;2023-07-24T04:10:57;97278.00;;;22.50
19040;BMP180;9652;49.014;12.052;2023-07-24T04:13:24;97241.00;;;22.50
19040;BMP180;9652;49.014;12.052;2023-07-24T04:15:51;97185.00;;;22.50
19040;BMP180;9652;49.014;12.052;2023-07-24T04:18:19;97119.00;;;22.60
19040;BMP180;9652;49.014;12.052;2023-07-24T04:20:46;97060.00;;;22.60
19040;BMP180;9652;49.014;12.052;2023-07-24T04:23:13;97064.00;;;22.70
19040;BMP180;9652;49.014;12.052;2023-07-24T04:25:41;97083.00;;;22.40
19040;BMP180;9652;49.014;12.052;2023-07-24T04:28:08;97058.00;;;22.70
19040;BMP180;9652;49.014;12.052;2023-07-24T04:30:35;97026.00;;;22.70
19040;BMP180;9652;49.014;12.052;2023-07-24T04:33:02;97057.00;;;22.80
19040;BMP180;9652;49.014;12.052;2023-07-24T04:35:30;97094.00;;;22.80
19040;BMP180;9652;49.014;12.052;2023-07-24T04:37:57;97124.00;;;22.80
19040;BMP180;9652;49.014;12.052;2023-07-24T04:40:25;97123.00;;;22.90
19040;BMP180;9652;49.014;12.052;2023-07-24T04:42:52;97113.00;;;22.90
19040;BMP180;9652;49.014;12.052;2023-07-24T04:45:19;97106.00;;;22.90
19040;BMP180;9652;49.014;12.052;2023-07-24T04:47:46;97112.00;;;23.00
19040;BMP180;9652;49.014;12.052;2023-07-24T04:50:13;97107.00;;;23.00
19040;BMP180;9652;49.014;12.052;2023-07-24T04:52:41;97110.00;;;23.10
19040;BMP180;9652;49.014;12.052;2023-07-24T04:55:09;97123.00;;;23.10
19040;BMP180;9652;49.014;12.052;2023-07-24T04:57:36;97118.00;;;23.10
19040;BMP180;9652;49.014;12.052;2023-07-24T05:00:04;97120.00;;;23.10
19040;BMP180;9652;49.014;12.052;2023-07-24T05:02:32;97130.00;;;23.20
19040;BMP180;9652;49.014;12.052;2023-07-24T05:04:59;97140.00;;;23.20
19040;BMP180;9652;49.014;12.052;2023-07-24T05:07:26;97149.00;;;23.20
19040;BMP180;9652;49.014;12.052;2023-07-24T05:09:54;97132.00;;;23.20
19040;BMP180;9652;49.014;12.052;2023-07-24T05:12:21;97141.00;;;23.20
19040;BMP180;9652;49.014;12.052;2023-07-24T05:14:48;97085.00;;;23.30
19040;BMP180;9652;49.014;12.052;2023-07-24T05:17:16;97103.00;;;23.30
19040;BMP180;9652;49.014;12.052;2023-07-24T05:19:43;97123.00;;;23.20
19040;BMP180;9652;49.014;12.052;2023-07-24T05:22:10;97131.00;;;23.20
19040;BMP180;9652;49.014;12.052;2023-07-24T05:24:37;97122.00;;;23.20
19040;BMP180;9652;49.014;12.052;2023-07-24T05:27:06;97119.00;;;23.20
19040;BMP180;9652;49.014;12.052;2023-07-24T05:29:33;97114.00;;;23.20
19040;BMP180;9652;49.014;12.052;2023-07-24T05:32:00;97119.00;;;23.20
19040;BMP180;9652;49.014;12.052;2023-07-24T05:34:27;97100.00;;;23.20
19040;BMP180;9652;49.014;12.052;2023-07-24T05:36:54;97103.00;;;23.20
19040;BMP180;9652;49.014;12.052;2023-07-24T05:39:21;97075.00;;;23.20
19040;BMP180;9652;49.014;12.052;2023-07-24T05:41:48;97074.00;;;23.20
19040;BMP180;9652;49.014;12.052;2023-07-24T05:44:17;97080.00;;;23.30
19040;BMP180;9652;49.014;12.052;2023-07-24T05:46:44;97074.00;;;23.30
19040;BMP180;9652;49.014;12.052;2023-07-24T05:49:11;97074.00;;;23.40
19040;BMP180;9652;49.014;12.052;2023-07-24T05:51:38;97074.00;;;23.50
19040;BMP180;9652;49.014;12.052;2023-07-24T05:54:05;97061.00;;;23.50
19040;BMP180;9652;49.014;12.052;2023-07-24T05:56:32;97081.00;;;23.60
19040;BMP180;9652;49.014;12.052;2023-07-24T05:58:59;97082.00;;;23.70
19040;BMP180;9652;49.014;12.052;2023-07-24T06:01:27;97067.00;;;23.80
19040;BMP180;9652;49.014;12.052;2023-07-24T06:03:54;97066.00;;;23.90
19040;BMP180;9652;49.014;12.052;2023-07-24T06:06:22;97085.00;;;24.00
19040;BMP180;9652;49.014;12.052;2023-07-24T06:08:49;97069.00;;;24.20
19040;BMP180;9652;49.014;12.052;2023-07-24T06:11:16;97055.00;;;24.30
19040;BMP180;9652;49.014;12.052;2023-07-24T06:13:43;97069.00;;;24.40
19040;BMP180;9652;49.014;12.052;2023-07-24T06:16:10;97057.00;;;24.60
19040;BMP180;9652;49.014;12.052;2023-07-24T06:18:41;97046.00;;;24.60
19040;BMP180;9652;49.014;12.052;2023-07-24T06:21:08;97055.00;;;24.70
19040;BMP180;9652;49.014;12.052;2023-07-24T06:23:35;97057.00;;;24.80
19040;BMP180;9652;49.014;12.052;2023-07-24T06:26:02;97038.00;;;24.90
19040;BMP180;9652;49.014;12.052;2023-07-24T06:28:29;97051.00;;;24.90
19040;BMP180;9652;49.014;12.052;2023-07-24T06:30:57;97059.00;;;25.00
19040;BMP180;9652;49.014;12.052;2023-07-24T06:33:24;97035.00;;;25.00
19040;BMP180;9652;49.014;12.052;2023-07-24T06:35:53;97060.00;;;25.00
19040;BMP180;9652;49.014;12.052;2023-07-24T06:38:20;97067.00;;;25.10
19040;BMP180;9652;49.014;12.052;2023-07-24T06:40:48;97063.00;;;25.20
19040;BMP180;9652;49.014;12.052;2023-07-24T06:43:15;97042.00;;;25.20
19040;BMP180;9652;49.014;12.052;2023-07-24T06:45:42;97053.00;;;25.30
19040;BMP180;9652;49.014;12.052;2023-07-24T06:48:09;97051.00;;;25.40
19040;BMP180;9652;49.014;12.052;2023-07-24T06:50:36;97052.00;;;25.50
19040;BMP180;9652;49.014;12.052;2023-07-24T06:53:05;97048.00;;;25.50
19040;BMP180;9652;49.014;12.052;2023-07-24T06:55:32;97045.00;;;25.60
19040;BMP180;9652;49.014;12.052;2023-07-24T06:57:59;97054.00;;;25.70
19040;BMP180;9652;49.014;12.052;2023-07-24T07:00:26;97052.00;;;25.80
19040;BMP180;9652;49.014;12.052;2023-07-24T07:02:53;97042.00;;;25.90
19040;BMP180;9652;49.014;12.052;2023-07-24T07:05:20;97054.00;;;26.00
19040;BMP180;9652;49.014;12.052;2023-07-24T07:07:47;97062.00;;;26.10
19040;BMP180;9652;49.014;12.052;2023-07-24T07:10:16;97048.00;;;26.10
19040;BMP180;9652;49.014;12.052;2023-07-24T07:12:43;97058.00;;;26.20
19040;BMP180;9652;49.014;12.052;2023-07-24T07:15:10;97093.00;;;26.30
19040;BMP180;9652;49.014;12.052;2023-07-24T07:17:37;97082.00;;;26.30
19040;BMP180;9652;49.014;12.052;2023-07-24T07:20:06;97074.00;;;26.40
19040;BMP180;9652;49.014;12.052;2023-07-24T07:22:33;97066.00;;;26.40
19040;BMP180;9652;49.014;12.052;2023-07-24T07:25:00;97054.00;;;26.50
19040;BMP180;9652;49.014;12.052;2023-07-24T07:27:29;97042.00;;;26.50
19040;BMP180;9652;49.014;12.052;2023-07-24T07:29:56;97046.00;;;26.60
19040;BMP180;9652;49.014;12.052;2023-07-24T07:32:23;97080.00;;;26.70
19040;BMP180;9652;49.014;12.052;2023-07-24T07:34:50;97084.00;;;26.80
19040;BMP180;9652;49.014;12.052;2023-07-24T07:37:17;97101.00;;;26.80
19040;BMP180;9652;49.014;12.052;2023-07-24T07:39:44;97092.00;;;26.90
19040;BMP180;9652;49.014;12.052;2023-07-24T07:42:11;97079.00;;;26.90
19040;BMP180;9652;49.014;12.052;2023-07-24T07:44:40;97107.00;;;26.90
19040;BMP180;9652;49.014;12.052;2023-07-24T07:47:07;97132.00;;;26.90
19040;BMP180;9652;49.014;12.052;2023-07-24T07:49:34;97139.00;;;26.90
19040;BMP180;9652;49.014;12.052;2023-07-24T07:52:01;97161.00;;;26.90
19040;BMP180;9652;49.014;12.052;2023-07-24T07:54:28;97177.00;;;26.90
19040;BMP180;9652;49.014;12.052;2023-07-24T07:56:55;97191.00;;;26.90
19040;BMP180;9652;49.014;12.052;2023-07-24T07:59:22;97206.00;;;26.80
19040;BMP180;9652;49.014;12.052;2023-07-24T08:01:50;97237.00;;;26.80
19040;BMP180;9652;49.014;12.052;2023-07-24T08:04:18;97195.00;;;26.70
19040;BMP180;9652;49.014;12.052;2023-07-24T08:06:45;97200.00;;;26.60
19040;BMP180;9652;49.014;12.052;2023-07-24T08:09:13;97198.00;;;26.50
19040;BMP180;9652;49.014;12.052;2023-07-24T08:11:40;97192.00;;;26.50
19040;BMP180;9652;49.014;12.052;2023-07-24T08:14:08;97195.00;;;26.40
19040;BMP180;9652;49.014;12.052;2023-07-24T08:16:35;97172.00;;;26.30
19040;BMP180;9652;49.014;12.052;2023-07-24T08:19:03;97168.00;;;26.10
19040;BMP180;9652;49.014;12.052;2023-07-24T08:21:30;97191.00;;;26.10
19040;BMP180;9652;49.014;12.052;2023-07-24T08:23:57;97204.00;;;26.00
19040;BMP180;9652;49.014;12.052;2023-07-24T08:26:26;97207.00;;;25.90
19040;BMP180;9652;49.014;12.052;2023-07-24T08:28:53;97207.00;;;25.80
19040;BMP180;9652;49.014;12.052;2023-07-24T08:31:21;97217.00;;;25.80
19040;BMP180;9652;49.014;12.052;2023-07-24T08:33:48;97219.00;;;25.70
19040;BMP180;9652;49.014;12.052;2023-07-24T08:36:16;97210.00;;;25.60
19040;BMP180;9652;49.014;12.052;2023-07-24T08:38:43;97211.00;;;25.50
19040;BMP180;9652;49.014;12.052;2023-07-24T08:41:12;97218.00;;;25.40
19040;BMP180;9652;49.014;12.052;2023-07-24T08:43:42;97206.00;;;25.40
19040;BMP180;9652;49.014;12.052;2023-07-24T08:46:10;97211.00;;;25.30
19040;BMP180;9652;49.014;12.052;2023-07-24T08:48:39;97187.00;;;25.20
19040;BMP180;9652;49.014;12.052;2023-07-24T08:51:09;97173.00;;;25.20
19040;BMP180;9652;49.014;12.052;2023-07-24T08:53:40;97171.00;;;25.20
19040;BMP180;9652;49.014;12.052;2023-07-24T08:56:10;97166.00;;;24.70
19040;BMP180;9652;49.014;12.052;2023-07-24T08:58:38;97172.00;;;25.20
19040;BMP180;9652;49.014;12.052;2023-07-24T09:01:07;97176.00;;;25.20
19040;BMP180;9652;49.014;12.052;2023-07-24T09:03:35;97170.00;;;25.20
19040;BMP180;9652;49.014;12.052;2023-07-24T09:06:04;97153.00;;;25.20
19040;BMP180;9652;49.014;12.052;2023-07-24T09:08:35;97153.00;;;25.30
19040;BMP180;9652;49.014;12.052;2023-07-24T09:11:05;97155.00;;;25.40
19040;BMP180;9652;49.014;12.052;2023-07-24T09:13:35;97140.00;;;25.50
19040;BMP180;9652;49.014;12.052;2023-07-24T09:16:03;97115.00;;;25.50
19040;BMP180;9652;49.014;12.052;2023-07-24T09:18:39;97096.00;;;25.60
19040;BMP180;9652;49.014;12.052;2023-07-24T09:21:06;97074.00;;;25.70
19040;BMP180;9652;49.014;12.052;2023-07-24T09:23:33;97094.00;;;25.70
19040;BMP180;9652;49.014;12.052;2023-07-24T09:26:07;97098.00;;;25.70
19040;BMP180;9652;49.014;12.052;2023-07-24T09:28:35;97077.00;;;25.70
19040;BMP180;9652;49.014;12.052;2023-07-24T09:31:02;97099.00;;;25.70
19040;BMP180;9652;49.014;12.052;2023-07-24T09:33:39;97090.00;;;25.60
19040;BMP180;9652;49.014;12.052;2023-07-24T09:36:08;97088.00;;;25.60
19040;BMP180;9652;49.014;12.052;2023-07-24T09:38:36;97071.00;;;25.70
19040;BMP180;9652;49.014;12.052;2023-07-24T09:41:06;97080.00;;;25.70
19040;BMP180;9652;49.014;12.052;2023-07-24T09:43:33;97076.00;;;25.80
19040;BMP180;9652;49.014;12.052;2023-07-24T09:46:05;97070.00;;;26.00
19040;BMP180;9652;49.014;12.052;2023-07-24T09:48:33;97061.00;;;26.10
19040;BMP180;9652;49.014;12.052;2023-07-24T09:51:01;97050.00;;;26.30
19040;BMP180;9652;49.014;12.052;2023-07-24T09:53:33;97036.00;;;26.60
19040;BMP180;9652;49.014;12.052;2023-07-24T09:56:04;97025.00;;;26.90
19040;BMP180;9652;49.014;12.052;2023-07-24T09:58:37;97019.00;;;27.20
19040;BMP180;9652;49.014;12.052;2023-07-24T10:01:07;97013.00;;;27.40
19040;BMP180;9652;49.014;12.052;2023-07-24T10:03:37;97022.00;;;27.60
19040;BMP180;9652;49.014;12.052;2023-07-24T10:06:05;97017.00;;;27.90
19040;BMP180;9652;49.014;12.052;2023-07-24T10:08:32;97014.00;;;28.10
19040;BMP180;9652;49.014;12.052;2023-07-24T10:11:01;97020.00;;;28.30
19040;BMP180;9652;49.014;12.052;2023-07-24T10:13:29;97022.00;;;28.40
19040;BMP180;9652;49.014;12.052;2023-07-24T10:15:58;97015.00;;;28.50
19040;BMP180;9652;49.014;12.052;2023-07-24T10:18:27;97021.00;;;28.60
19040;BMP180;9652;49.014;12.052;2023-07-24T10:21:01;97001.00;;;28.70
19040;BMP180;9652;49.014;12.052;2023-07-24T10:23:29;96996.00;;;28.80
19040;BMP180;9652;49.014;12.052;2023-07-24T10:26:02;96996.00;;;28.90
19040;BMP180;9652;49.014;12.052;2023-07-24T10:28:32;96997.00;;;29.10
19040;BMP180;9652;49.014;12.052;2023-07-24T10:31:02;96979.00;;;29.20
19040;BMP180;9652;49.014;12.052;2023-07-24T10:33:31;97012.00;;;29.40
19040;BMP180;9652;49.014;12.052;2023-07-24T10:36:05;97008.00;;;29.50
19040;BMP180;9652;49.014;12.052;2023-07-24T10:38:37;97017.00;;;29.80
19040;BMP180;9652;49.014;12.052;2023-07-24T10:41:06;97023.00;;;30.00
19040;BMP180;9652;49.014;12.052;2023-07-24T10:43:42;97025.00;;;30.20
19040;BMP180;9652;49.014;12.052;2023-07-24T10:46:11;97030.00;;;30.00
19040;BMP180;9652;49.014;12.052;2023-07-24T10:48:43;97021.00;;;30.40
19040;BMP180;9652;49.014;12.052;2023-07-24T10:51:12;97030.00;;;30.50
19040;BMP180;9652;49.014;12.052;2023-07-24T10:53:44;97028.00;;;30.60
19040;BMP180;9652;49.014;12.052;2023-07-24T10:56:12;97015.00;;;30.60
19040;BMP180;9652;49.014;12.052;2023-07-24T10:58:40;97023.00;;;30.70
19040;BMP180;9652;49.014;12.052;2023-07-24T11:01:08;97015.00;;;30.70
19040;BMP180;9652;49.014;12.052;2023-07-24T11:03:40;96998.00;;;30.80
19040;BMP180;9652;49.014;12.052;2023-07-24T11:06:13;97000.00;;;30.80
19040;BMP180;9652;49.014;12.052;2023-07-24T11:08:41;97012.00;;;30.90
19040;BMP180;9652;49.014;12.052;2023-07-24T11:11:09;97003.00;;;30.90
19040;BMP180;9652;49.014;12.052;2023-07-24T11:13:38;96988.00;;;31.00
19040;BMP180;9652;49.014;12.052;2023-07-24T11:16:07;96992.00;;;30.90
19040;BMP180;9652;49.014;12.052;2023-07-24T11:18:46;96991.00;;;31.10
19040;BMP180;9652;49.014;12.052;2023-07-24T11:21:14;96974.00;;;31.20
19040;BMP180;9652;49.014;12.052;2023-07-24T11:23:49;96963.00;;;31.30
19040;BMP180;9652;49.014;12.052;2023-07-24T11:26:19;96978.00;;;31.40
19040;BMP180;9652;49.014;12.052;2023-07-24T11:28:46;96984.00;;;31.50
19040;BMP180;9652;49.014;12.052;2023-07-24T11:31:14;96982.00;;;31.50
19040;BMP180;9652;49.014;12.052;2023-07-24T11:33:44;96992.00;;;31.50
19040;BMP180;9652;49.014;12.052;2023-07-24T11:36:12;96954.00;;;31.50
19040;BMP180;9652;49.014;12.052;2023-07-24T11:38:40;96987.00;;;31.40
19040;BMP180;9652;49.014;12.052;2023-07-24T11:41:08;96978.00;;;31.30
19040;BMP180;9652;49.014;12.052;2023-07-24T11:43:45;96973.00;;;31.20
19040;BMP180;9652;49.014;12.052;2023-07-24T11:46:22;96990.00;;;31.10
19040;BMP180;9652;49.014;12.052;2023-07-24T11:48:51;96992.00;;;31.00
19040;BMP180;9652;49.014;12.052;2023-07-24T11:51:19;96982.00;;;30.90
19040;BMP180;9652;49.014;12.052;2023-07-24T11:53:46;96988.00;;;30.70
19040;BMP180;9652;49.014;12.052;2023-07-24T11:56:16;96989.00;;;30.60
19040;BMP180;9652;49.014;12.052;2023-07-24T11:58:43;96997.00;;;30.50
19040;BMP180;9652;49.014;12.052;2023-07-24T12:01:12;96984.00;;;30.30
19040;BMP180;9652;49.014;12.052;2023-07-24T12:03:42;96992.00;;;30.20
19040;BMP180;9652;49.014;12.052;2023-07-24T12:06:16;96945.00;;;30.00
19040;BMP180;9652;49.014;12.052;2023-07-24T12:08:44;96979.00;;;30.00
19040;BMP180;9652;49.014;12.052;2023-07-24T12:11:16;96982.00;;;29.90
19040;BMP180;9652;49.014;12.052;2023-07-24T12:13:44;96976.00;;;29.80
19040;BMP180;9652;49.014;12.052;2023-07-24T12:16:11;96989.00;;;29.60
19040;BMP180;9652;49.014;12.052;2023-07-24T12:18:38;96984.00;;;29.50
19040;BMP180;9652;49.014;12.052;2023-07-24T12:21:05;96979.00;;;29.40
19040;BMP180;9652;49.014;12.052;2023-07-24T12:23:34;96987.00;;;29.40
19040;BMP180;9652;49.014;12.052;2023-07-24T12:26:01;97001.00;;;29.30
19040;BMP180;9652;49.014;12.052;2023-07-24T12:28:28;96986.00;;;29.30
19040;BMP180;9652;49.014;12.052;2023-07-24T12:30:55;97009.00;;;29.30
19040;BMP180;9652;49.014;12.052;2023-07-24T12:33:22;96958.00;;;29.20
19040;BMP180;9652;49.014;12.052;2023-07-24T12:35:50;97001.00;;;29.50
19040;BMP180;9652;49.014;12.052;2023-07-24T12:38:17;96973.00;;;29.60
19040;BMP180;9652;49.014;12.052;2023-07-24T12:40:45;96970.00;;;29.60
19040;BMP180;9652;49.014;12.052;2023-07-24T12:43:14;97015.00;;;29.70
19040;BMP180;9652;49.014;12.052;2023-07-24T12:45:41;97061.00;;;29.60
19040;BMP180;9652;49.014;12.052;2023-07-24T12:48:09;97095.00;;;29.60
19040;BMP180;9652;49.014;12.052;2023-07-24T12:50:37;97095.00;;;29.30
19040;BMP180;9652;49.014;12.052;2023-07-24T12:53:04;97002.00;;;28.80
19040;BMP180;9652;49.014;12.052;2023-07-24T12:55:31;97117.00;;;28.30
19040;BMP180;9652;49.014;12.052;2023-07-24T12:57:59;97113.00;;;27.80
19040;BMP180;9652;49.014;12.052;2023-07-24T13:00:27;97114.00;;;27.40
19040;BMP180;9652;49.014;12.052;2023-07-24T13:02:56;97135.00;;;27.00
19040;BMP180;9652;49.014;12.052;2023-07-24T13:05:23;97123.00;;;26.70
19040;BMP180;9652;49.014;12.052;2023-07-24T13:07:50;97122.00;;;26.40
19040;BMP180;9652;49.014;12.052;2023-07-24T13:10:18;97147.00;;;26.10
19040;BMP180;9652;49.014;12.052;2023-07-24T13:12:46;97101.00;;;25.90
19040;BMP180;9652;49.014;12.052;2023-07-24T13:15:14;97075.00;;;25.60
19040;BMP180;9652;49.014;12.052;2023-07-24T13:17:42;97072.00;;;25.40
19040;BMP180;9652;49.014;12.052;2023-07-24T13:20:11;97062.00;;;25.20
19040;BMP180;9652;49.014;12.052;2023-07-24T13:22:38;97053.00;;;25.00
19040;BMP180;9652;49.014;12.052;2023-07-24T13:25:06;97040.00;;;24.80
19040;BMP180;9652;49.014;12.052;2023-07-24T13:27:33;97027.00;;;24.70
19040;BMP180;9652;49.014;12.052;2023-07-24T13:30:00;97000.00;;;24.60
19040;BMP180;9652;49.014;12.052;2023-07-24T13:32:29;96978.00;;;24.60
19040;BMP180;9652;49.014;12.052;2023-07-24T13:34:56;96975.00;;;24.70
19040;BMP180;9652;49.014;12.052;2023-07-24T13:37:24;96947.00;;;24.80
19040;BMP180;9652;49.014;12.052;2023-07-24T13:39:52;96943.00;;;25.00
19040;BMP180;9652;49.014;12.052;2023-07-24T13:42:22;96834.00;;;25.20
19040;BMP180;9652;49.014;12.052;2023-07-24T13:44:49;96928.00;;;25.30
19040;BMP180;9652;49.014;12.052;2023-07-24T13:47:16;96722.00;;;25.50
19040;BMP180;9652;49.014;12.052;2023-07-24T13:49:45;96920.00;;;25.70
19040;BMP180;9652;49.014;12.052;2023-07-24T13:52:12;96901.00;;;25.90
19040;BMP180;9652;49.014;12.052;2023-07-24T13:54:39;96959.00;;;25.90
19040;BMP180;9652;49.014;12.052;2023-07-24T13:57:06;96907.00;;;26.20
19040;BMP180;9652;49.014;12.052;2023-07-24T13:59:34;96927.00;;;26.40
19040;BMP180;9652;49.014;12.052;2023-07-24T14:02:01;96900.00;;;26.60
19040;BMP180;9652;49.014;12.052;2023-07-24T14:04:28;96902.00;;;26.70
19040;BMP180;9652;49.014;12.052;2023-07-24T14:06:57;96891.00;;;26.80
19040;BMP180;9652;49.014;12.052;2023-07-24T14:09:24;96902.00;;;26.90
19040;BMP180;9652;49.014;12.052;2023-07-24T14:11:52;96912.00;;;27.00
19040;BMP180;9652;49.014;12.052;2023-07-24T14:14:18;96912.00;;;27.10